Time;durP1;ratioP1;P1;durP2;ratioP2;P2;SDS_P1;SDS_P2;PMS_P1;PMS_P2;Temp;Humidity;BMP_temperature;BMP_pressure;BME280_temperature;BME280_humidity;BME280_pressure;Samples;Min_cycle;Max_cycle;Signal;HPM_P1;HPM_P2
2022/06/02 00:01:58;;;;;;;28.33;18.73;;;17.40;99.90;;;;;;5053586;28;20025;-57
2022/06/02 00:04:42;;;;;;;31.02;18.75;;;17.30;99.90;;;;;;5054009;28;20036;-57
2022/06/02 00:07:08;;;;;;;26.83;17.92;;;17.30;99.90;;;;;;5053690;28;20413;-57
2022/06/02 00:09:52;;;;;;;26.52;17.98;;;17.30;99.90;;;;;;5053791;28;20087;-57
2022/06/02 00:12:41;;;;;;;29.30;18.27;;;17.20;99.90;;;;;;5053799;28;20112;-57
2022/06/02 00:15:26;;;;;;;27.08;18.52;;;17.20;99.90;;;;;;5055201;28;20033;-57
2022/06/02 00:18:01;;;;;;;34.13;18.77;;;17.20;99.90;;;;;;5057630;28;20571;-57
2022/06/02 00:20:36;;;;;;;26.13;18.20;;;17.20;99.90;;;;;;5057684;28;20044;-57
2022/06/02 00:23:14;;;;;;;27.90;18.40;;;17.20;99.90;;;;;;5057432;28;20091;-57
2022/06/02 00:25:57;;;;;;;27.23;17.92;;;17.10;99.90;;;;;;5057700;28;20029;-57
2022/06/02 00:28:45;;;;;;;27.60;18.02;;;17.10;99.90;;;;;;5057748;28;20021;-57
2022/06/02 00:31:48;;;;;;;31.67;18.10;;;17.10;99.90;;;;;;5039691;28;20079;-57
2022/06/02 00:34:25;;;;;;;25.90;16.95;;;17.10;99.90;;;;;;5057577;28;20530;-57
2022/06/02 00:37:15;;;;;;;28.05;17.73;;;17.10;99.90;;;;;;5057316;28;20029;-57
2022/06/02 00:39:41;;;;;;;26.15;17.25;;;17.10;99.90;;;;;;5057289;28;20083;-57
2022/06/02 00:42:26;;;;;;;33.45;18.85;;;17.00;99.90;;;;;;5057464;28;20017;-57
2022/06/02 00:44:58;;;;;;;32.28;18.02;;;17.00;99.90;;;;;;5057193;28;20029;-57
2022/06/02 00:47:56;;;;;;;37.60;17.45;;;17.00;99.90;;;;;;5057267;28;20493;-57
2022/06/02 00:50:37;;;;;;;31.98;17.55;;;16.90;99.90;;;;;;5057301;28;20104;-57
2022/06/02 00:53:13;;;;;;;34.70;19.45;;;17.00;99.90;;;;;;5057117;28;20562;-57
2022/06/02 00:59:07;;;;;;;35.20;19.83;;;16.90;99.90;;;;;;5056853;28;20041;-57
2022/06/02 01:01:35;;;;;;;28.70;18.27;;;16.90;99.90;;;;;;5057003;28;20032;-57
2022/06/02 01:04:07;;;;;;;33.08;19.92;;;16.90;99.90;;;;;;5057223;28;20029;-57
2022/06/02 01:06:52;;;;;;;35.05;18.42;;;16.80;99.90;;;;;;5056960;28;20043;-57
2022/06/02 01:09:40;;;;;;;32.33;17.33;;;16.70;99.90;;;;;;5056780;28;20048;-57
2022/06/02 01:12:19;;;;;;;31.88;18.17;;;16.70;99.90;;;;;;5056813;28;20101;-57
2022/06/02 01:14:51;;;;;;;30.13;17.70;;;16.70;99.90;;;;;;5056797;28;20084;-57
2022/06/02 01:17:54;;;;;;;26.73;17.55;;;16.60;99.90;;;;;;5056928;28;20035;-57
2022/06/02 01:20:46;;;;;;;26.42;17.30;;;16.60;99.90;;;;;;5056520;28;20048;-57
2022/06/02 01:23:49;;;;;;;28.63;17.60;;;16.60;99.90;;;;;;5056681;28;20403;-57
2022/06/02 01:26:18;;;;;;;26.08;16.95;;;16.60;99.90;;;;;;5056363;28;20075;-57
2022/06/02 01:28:55;;;;;;;22.70;16.60;;;16.50;99.90;;;;;;5056342;28;20025;-57
2022/06/02 01:31:40;;;;;;;28.77;17.15;;;16.50;99.90;;;;;;5056616;28;20032;-57
2022/06/02 01:34:18;;;;;;;30.23;18.42;;;16.50;99.90;;;;;;5056480;28;20063;-57
2022/06/02 01:36:53;;;;;;;28.08;18.98;;;16.40;99.90;;;;;;5056223;28;20078;-57
2022/06/02 01:39:24;;;;;;;32.80;17.42;;;16.50;99.90;;;;;;5056582;28;20099;-57
2022/06/02 01:41:59;;;;;;;27.20;17.77;;;16.50;99.90;;;;;;5056220;28;20039;-57
2022/06/02 01:44:44;;;;;;;30.20;17.73;;;16.50;99.90;;;;;;5056429;28;20049;-57
2022/06/02 01:47:18;;;;;;;28.52;17.10;;;16.50;99.90;;;;;;5056211;28;20025;-57
2022/06/02 01:50:05;;;;;;;31.25;17.73;;;16.40;99.90;;;;;;5056166;28;20430;-57
2022/06/02 01:52:42;;;;;;;26.65;15.52;;;16.40;99.90;;;;;;5056720;28;20374;-57
2022/06/02 01:55:26;;;;;;;27.13;16.15;;;16.40;99.90;;;;;;5056061;28;20430;-57
2022/06/02 01:58:05;;;;;;;24.60;16.17;;;16.40;99.90;;;;;;5055695;28;20039;-57
2022/06/02 02:00:34;;;;;;;28.73;16.75;;;16.30;99.90;;;;;;5056057;28;20069;-57
2022/06/02 02:03:15;;;;;;;39.72;19.52;;;16.40;99.90;;;;;;5055727;28;20029;-57
2022/06/02 02:06:01;;;;;;;34.80;18.23;;;16.30;99.90;;;;;;5055656;28;20044;-57
2022/06/02 02:08:36;;;;;;;34.45;16.15;;;16.30;99.90;;;;;;5055874;28;20025;-57
2022/06/02 02:11:08;;;;;;;27.52;16.75;;;16.30;99.90;;;;;;5055688;28;20474;-57
2022/06/02 02:13:57;;;;;;;24.95;16.17;;;16.30;99.90;;;;;;5055760;28;20619;-57
2022/06/02 02:16:56;;;;;;;24.80;16.65;;;16.30;99.90;;;;;;5054984;28;20116;-57
2022/06/02 02:19:34;;;;;;;25.08;15.73;;;16.20;99.90;;;;;;5055505;28;20078;-58
2022/06/02 02:22:23;;;;;;;27.00;16.65;;;16.20;99.90;;;;;;5055791;28;20037;-57
2022/06/02 02:25:01;;;;;;;29.98;15.43;;;16.10;99.90;;;;;;5055721;28;20033;-58
2022/06/02 02:28:02;;;;;;;25.17;15.43;;;16.10;99.90;;;;;;5055522;28;20060;-57
2022/06/02 02:30:19;;;;;;;27.17;16.60;;;16.10;99.90;;;;;;5055273;28;20032;-57
2022/06/02 02:33:26;;;;;;;27.13;16.25;;;16.10;99.90;;;;;;5055466;28;20025;-57
2022/06/02 02:36:29;;;;;;;30.45;18.27;;;16.00;99.90;;;;;;5055269;28;20029;-58
2022/06/02 02:39:02;;;;;;;28.73;16.42;;;16.00;99.90;;;;;;5054485;28;20021;-57
2022/06/02 02:41:44;;;;;;;29.33;18.38;;;16.00;99.90;;;;;;5055046;28;20500;-57
2022/06/02 02:44:23;;;;;;;27.95;15.70;;;15.90;99.90;;;;;;5055102;28;20079;-57
2022/06/02 02:47:11;;;;;;;29.25;15.27;;;15.80;99.90;;;;;;5054921;28;20025;-57
2022/06/02 02:49:46;;;;;;;23.02;15.68;;;15.80;99.90;;;;;;5055306;28;20064;-58
2022/06/02 02:52:34;;;;;;;28.98;15.13;;;15.80;99.90;;;;;;5055030;28;20390;-57
2022/06/02 02:55:05;;;;;;;23.38;15.55;;;15.80;99.90;;;;;;5054724;28;20061;-58
2022/06/02 02:57:44;;;;;;;20.88;15.23;;;15.80;99.90;;;;;;5054967;28;20083;-58
2022/06/02 03:01:02;;;;;;;26.00;16.52;;;15.80;99.90;;;;;;5054634;28;20063;-57
2022/06/02 03:03:55;;;;;;;25.70;15.75;;;15.80;99.90;;;;;;5013092;28;20345;-57
2022/06/02 03:06:31;;;;;;;27.25;15.65;;;15.70;99.90;;;;;;5054784;28;20024;-58
2022/06/02 03:09:29;;;;;;;25.27;15.63;;;15.70;99.90;;;;;;5054498;28;20037;-58
2022/06/02 03:12:10;;;;;;;24.13;16.52;;;15.70;99.90;;;;;;5054436;28;20033;-58
2022/06/02 03:15:10;;;;;;;25.55;16.17;;;15.70;99.90;;;;;;5054499;28;20112;-58
2022/06/02 03:17:44;;;;;;;24.83;16.13;;;15.80;99.90;;;;;;5054613;28;20597;-58
2022/06/02 03:20:34;;;;;;;27.00;16.02;;;15.80;99.90;;;;;;5054292;28;20548;-58
2022/06/02 03:23:19;;;;;;;25.08;16.33;;;15.70;99.90;;;;;;5054038;28;20031;-58
2022/06/02 03:26:08;;;;;;;25.42;15.55;;;15.80;99.90;;;;;;5054264;28;20071;-58
2022/06/02 03:29:20;;;;;;;30.23;16.95;;;15.70;99.90;;;;;;5054456;28;20028;-58
2022/06/02 03:31:58;;;;;;;23.13;15.43;;;15.80;99.90;;;;;;5025458;28;20094;-58
2022/06/02 03:34:33;;;;;;;29.52;17.65;;;15.70;99.90;;;;;;5054319;28;20032;-58
2022/06/02 03:37:13;;;;;;;27.90;17.00;;;15.80;99.90;;;;;;5053777;28;20044;-58
2022/06/02 03:40:05;;;;;;;26.27;16.30;;;15.80;99.90;;;;;;5054129;28;20036;-58
2022/06/02 03:42:34;;;;;;;29.20;18.33;;;15.90;99.90;;;;;;5054090;28;20106;-58
2022/06/02 03:45:11;;;;;;;28.10;18.42;;;15.90;99.90;;;;;;5054006;28;20083;-58
2022/06/02 03:47:59;;;;;;;25.38;17.90;;;16.00;99.90;;;;;;5054029;28;20032;-58
2022/06/02 03:50:51;;;;;;;28.30;18.73;;;16.00;99.90;;;;;;5053108;28;20054;-58
2022/06/02 03:53:53;;;;;;;30.27;16.65;;;16.10;99.90;;;;;;5053896;28;20036;-58
2022/06/02 03:56:43;;;;;;;25.23;16.25;;;16.10;99.90;;;;;;5053832;28;20029;-58
2022/06/02 03:59:24;;;;;;;25.00;16.50;;;16.20;99.90;;;;;;5053957;28;20031;-58
2022/06/02 04:02:02;;;;;;;26.92;16.55;;;16.20;99.90;;;;;;5053691;28;20063;-58
2022/06/02 04:05:06;;;;;;;27.33;17.88;;;16.30;99.90;;;;;;5053919;28;20025;-58
2022/06/02 04:07:44;;;;;;;27.27;17.25;;;16.40;99.90;;;;;;5017722;28;20437;-58
2022/06/02 04:10:34;;;;;;;26.15;17.13;;;16.50;99.90;;;;;;5053775;28;20033;-58
2022/06/02 04:16:29;;;;;;;34.13;19.02;;;16.60;99.90;;;;;;5053634;28;20040;-58
2022/06/02 04:22:16;;;;;;;30.35;20.70;;;16.80;99.90;;;;;;5053534;28;20041;-58
2022/06/02 04:24:47;;;;;;;33.95;18.02;;;16.90;99.90;;;;;;5053471;28;20087;-57
2022/06/02 04:27:30;;;;;;;32.67;19.50;;;16.90;99.90;;;;;;5053613;28;20501;-58
2022/06/02 04:30:29;;;;;;;29.90;19.27;;;17.00;99.90;;;;;;5053449;28;20383;-58
2022/06/02 04:33:13;;;;;;;34.63;18.38;;;17.10;99.90;;;;;;5053407;28;20110;-58
2022/06/02 04:35:47;;;;;;;28.80;20.52;;;17.20;99.90;;;;;;5053593;28;20041;-58
2022/06/02 04:38:34;;;;;;;30.55;18.90;;;17.20;99.90;;;;;;5053419;28;20482;-58
2022/06/02 04:41:18;;;;;;;24.27;16.88;;;17.30;99.90;;;;;;5053277;28;20032;-58
2022/06/02 04:44:16;;;;;;;38.33;19.45;;;17.40;99.90;;;;;;5053438;28;20447;-57
2022/06/02 04:47:03;;;;;;;31.20;18.48;;;17.50;99.90;;;;;;5053224;28;20029;-58
2022/06/02 04:49:40;;;;;;;39.58;18.83;;;17.60;99.90;;;;;;5053511;28;20411;-58
2022/06/02 04:52:20;;;;;;;28.33;18.55;;;17.70;99.90;;;;;;5053502;28;20025;-57
2022/06/02 04:54:59;;;;;;;29.50;17.98;;;17.90;99.90;;;;;;5053229;28;20363;-57
2022/06/02 04:58:02;;;;;;;29.77;18.13;;;17.90;99.90;;;;;;5053712;28;20025;-57
2022/06/02 05:00:35;;;;;;;30.27;18.70;;;18.00;99.90;;;;;;5017374;28;20044;-58
2022/06/02 05:03:47;;;;;;;35.50;20.10;;;18.10;99.90;;;;;;5056721;28;20052;-57
2022/06/02 05:06:32;;;;;;;29.90;18.35;;;18.20;99.90;;;;;;5033098;28;20037;-57
2022/06/02 05:09:30;;;;;;;27.00;17.02;;;18.30;99.90;;;;;;5056485;28;20032;-57
2022/06/02 05:12:13;;;;;;;33.45;17.10;;;18.40;99.90;;;;;;5056503;28;20029;-57
2022/06/02 05:14:59;;;;;;;37.38;18.75;;;18.50;99.90;;;;;;5052481;28;20052;-57
2022/06/02 05:17:46;;;;;;;32.80;17.42;;;18.60;99.90;;;;;;5043527;28;20029;-58
2022/06/02 05:20:54;;;;;;;26.05;18.25;;;18.60;99.90;;;;;;5046035;28;20044;-57
2022/06/02 05:23:38;;;;;;;33.15;18.60;;;18.70;99.90;;;;;;5051868;28;20103;-57
2022/06/02 05:26:29;;;;;;;30.95;18.17;;;18.90;99.90;;;;;;5047452;28;20394;-57
2022/06/02 05:29:36;;;;;;;32.20;17.42;;;19.00;99.90;;;;;;5048057;28;20037;-57
2022/06/02 05:32:20;;;;;;;31.05;17.58;;;19.20;99.90;;;;;;4977743;28;20027;-57
2022/06/02 05:35:06;;;;;;;32.30;18.20;;;19.30;99.90;;;;;;4976811;28;20034;-57
2022/06/02 05:37:46;;;;;;;29.25;17.25;;;19.50;99.90;;;;;;4983836;28;20346;-57
2022/06/02 05:40:38;;;;;;;30.88;18.40;;;19.60;99.90;;;;;;4974875;28;20137;-57
2022/06/02 05:43:10;;;;;;;30.02;18.42;;;19.80;99.90;;;;;;4978912;28;20027;-57
2022/06/02 05:45:49;;;;;;;39.08;20.38;;;19.90;99.90;;;;;;4980887;28;20352;-57
2022/06/02 05:48:49;;;;;;;35.60;18.90;;;20.00;99.90;;;;;;4977269;28;20031;-57
2022/06/02 05:51:15;;;;;;;28.70;18.98;;;20.10;99.90;;;;;;4974710;28;20046;-57
2022/06/02 05:54:14;;;;;;;37.67;21.23;;;20.20;99.90;;;;;;4957649;28;20042;-57
2022/06/02 05:57:09;;;;;;;36.88;21.27;;;20.40;99.90;;;;;;4979762;28;20030;-57
2022/06/02 05:59:47;;;;;;;30.45;18.27;;;20.50;99.90;;;;;;4963499;28;20141;-57
2022/06/02 06:02:26;;;;;;;52.33;20.65;;;20.70;99.90;;;;;;4964848;28;20552;-57
2022/06/02 06:05:16;;;;;;;36.95;19.88;;;20.80;99.90;;;;;;4979697;28;20087;-57
2022/06/02 06:08:11;;;;;;;33.92;19.73;;;20.90;99.90;;;;;;5052028;28;20630;-57
2022/06/02 06:10:52;;;;;;;32.00;17.73;;;21.10;99.90;;;;;;5049283;28;20032;-57
2022/06/02 06:13:21;;;;;;;32.85;19.00;;;21.30;99.90;;;;;;5047204;28;20197;-57
2022/06/02 06:15:51;;;;;;;34.15;18.20;;;21.40;99.90;;;;;;5042544;28;20037;-57
2022/06/02 06:18:29;;;;;;;37.78;19.88;;;21.50;99.90;;;;;;5049264;28;20158;-57
2022/06/02 06:21:22;;;;;;;34.38;21.13;;;21.70;99.90;;;;;;5047902;28;20044;-57
2022/06/02 06:24:03;;;;;;;41.00;20.65;;;21.80;99.90;;;;;;5047104;28;20033;-57
2022/06/02 06:26:37;;;;;;;41.03;21.77;;;21.90;99.90;;;;;;5045892;28;20057;-57
2022/06/02 06:29:21;;;;;;;36.90;20.17;;;22.20;99.90;;;;;;5038810;28;20033;-57
2022/06/02 06:31:53;;;;;;;33.53;19.83;;;22.30;99.90;;;;;;5039691;28;20033;-57
2022/06/02 06:34:28;;;;;;;35.97;18.20;;;22.50;99.90;;;;;;5044887;28;20421;-57
2022/06/02 06:37:07;;;;;;;30.95;16.80;;;22.50;99.90;;;;;;5054002;28;20040;-57
2022/06/02 06:40:17;;;;;;;34.65;18.65;;;22.80;99.90;;;;;;5039856;28;20037;-57
2022/06/02 06:43:07;;;;;;;28.25;17.45;;;22.90;99.90;;;;;;5047630;28;20352;-57
2022/06/02 06:45:48;;;;;;;;;;;23.10;99.90;;;;;;5049898;28;20017;-57
2022/06/02 06:48:23;;;;;;;32.60;19.33;;;23.40;99.90;;;;;;5045142;28;19952;-57
2022/06/02 06:51:09;;;;;;;35.58;17.70;;;23.60;99.90;;;;;;5045913;28;20395;-57
2022/06/02 06:53:45;;;;;;;35.78;19.23;;;23.80;99.90;;;;;;5050155;28;20214;-57
2022/06/02 06:56:37;;;;;;;35.10;17.20;;;24.00;99.90;;;;;;5043804;28;20029;-57
2022/06/02 06:59:41;;;;;;;43.65;19.70;;;24.10;99.90;;;;;;5037310;28;20408;-57
2022/06/02 07:02:33;;;;;;;39.78;18.70;;;24.50;99.90;;;;;;5042625;28;20028;-57
2022/06/02 07:05:20;;;;;;;29.02;15.85;;;24.90;99.90;;;;;;5046191;28;20064;-58
2022/06/02 07:08:05;;;;;;;27.67;15.73;;;25.20;99.90;;;;;;5043330;28;20033;-57
2022/06/02 07:14:38;;;;;;;29.85;15.07;;;25.80;95.20;;;;;;5034967;28;20045;-57
2022/06/02 07:17:19;;;;;;;24.50;11.75;;;26.00;92.50;;;;;;5044072;28;20067;-57
2022/06/02 07:19:57;;;;;;;23.33;12.40;;;26.10;90.00;;;;;;5049695;28;20368;-57
2022/06/02 07:22:45;;;;;;;23.60;10.32;;;26.40;91.70;;;;;;5048933;28;20088;-57
2022/06/02 07:25:18;;;;;;;15.00;8.98;;;26.50;88.80;;;;;;5045912;28;20364;-57
2022/06/02 07:28:02;;;;;;;21.55;10.05;;;26.60;89.20;;;;;;5045235;28;20034;-57
2022/06/02 07:31:15;;;;;;;22.50;10.38;;;26.70;86.90;;;;;;5036936;28;20029;-57
2022/06/02 07:34:24;;;;;;;22.00;9.77;;;27.10;86.40;;;;;;5032612;28;20114;-57
2022/06/02 07:37:29;;;;;;;17.90;8.75;;;27.50;85.20;;;;;;5050740;28;20038;-57
2022/06/02 07:40:20;;;;;;;15.35;7.95;;;27.70;78.60;;;;;;5051622;28;20472;-57
2022/06/02 07:43:16;;;;;;;23.42;8.32;;;27.80;77.80;;;;;;5048486;28;20036;-57
2022/06/02 07:46:03;;;;;;;22.85;8.18;;;27.90;77.60;;;;;;4978300;28;20417;-57
2022/06/02 07:48:55;;;;;;;18.60;7.53;;;28.10;77.30;;;;;;5040548;28;20031;-57
2022/06/02 07:51:31;;;;;;;18.98;7.38;;;28.50;71.70;;;;;;5043496;28;20029;-57
2022/06/02 07:54:15;;;;;;;18.70;6.70;;;28.70;68.70;;;;;;5040845;28;20436;-57
2022/06/02 07:57:27;;;;;;;20.98;8.38;;;28.60;70.50;;;;;;5044641;28;20033;-57
2022/06/02 08:00:18;;;;;;;12.77;6.35;;;28.80;71.30;;;;;;5048685;28;20025;-57
2022/06/02 08:03:05;;;;;;;16.23;6.97;;;29.00;67.20;;;;;;5041410;28;20028;-57
2022/06/02 08:05:53;;;;;;;14.55;6.80;;;29.20;64.70;;;;;;5045042;28;20025;-57
2022/06/02 08:08:43;;;;;;;13.90;6.72;;;29.00;65.80;;;;;;5045470;28;20510;-57
2022/06/02 08:11:30;;;;;;;;;;;29.40;66.80;;;;;;5044098;28;20032;-57
2022/06/02 08:14:35;;;;;;;17.08;6.50;;;29.40;63.70;;;;;;5043934;28;19920;-57
2022/06/02 08:17:13;;;;;;;13.80;6.07;;;29.60;64.30;;;;;;5040149;28;20462;-57
2022/06/02 08:20:07;;;;;;;20.85;7.82;;;29.90;62.50;;;;;;5042939;28;20509;-57
2022/06/02 08:22:42;;;;;;;13.73;6.47;;;30.50;63.90;;;;;;5047418;28;20414;-57
2022/06/02 08:25:12;;;;;;;18.92;6.82;;;30.20;59.40;;;;;;5046329;28;20091;-57
2022/06/02 08:28:06;;;;;;;12.18;6.68;;;30.30;60.90;;;;;;5045444;28;20025;-57
2022/06/02 08:30:44;;;;;;;11.65;6.15;;;30.40;61.00;;;;;;5045446;28;20078;-57
2022/06/02 08:33:38;;;;;;;13.93;6.72;;;30.40;59.10;;;;;;5047303;28;20040;-57
2022/06/02 08:36:13;;;;;;;9.93;6.28;;;30.70;59.60;;;;;;5050015;28;20179;-57
2022/06/02 08:39:05;;;;;;;21.13;7.50;;;31.10;60.90;;;;;;5051523;28;20035;-57
2022/06/02 08:42:01;;;;;;;9.68;5.82;;;31.40;57.40;;;;;;5050326;28;20025;-57
2022/06/02 08:45:05;;;;;;;12.63;6.63;;;30.80;58.00;;;;;;5034210;28;20057;-57
2022/06/02 08:47:43;;;;;;;11.38;6.30;;;31.10;57.00;;;;;;5050484;28;20081;-57
2022/06/02 08:50:15;;;;;;;13.80;5.90;;;31.10;59.10;;;;;;5053873;28;20025;-57
2022/06/02 08:53:18;;;;;;;15.15;6.28;;;31.30;57.30;;;;;;5053897;28;20032;-57
2022/06/02 08:56:02;;;;;;;14.15;6.95;;;31.30;54.10;;;;;;5051667;28;20044;-57
2022/06/02 08:59:00;;;;;;;14.43;6.25;;;31.20;55.00;;;;;;5050916;28;20522;-57
2022/06/02 09:01:45;;;;;;;10.88;5.97;;;31.30;55.90;;;;;;5049899;28;20326;-57
2022/06/02 09:04:43;;;;;;;14.77;6.55;;;31.70;54.30;;;;;;5040069;28;20029;-57
2022/06/02 09:07:44;;;;;;;18.23;6.43;;;31.50;54.40;;;;;;4967568;28;20154;-57
2022/06/02 09:10:16;;;;;;;12.63;6.75;;;31.80;55.20;;;;;;5038097;28;20021;-57
2022/06/02 09:12:51;;;;;;;12.85;6.20;;;32.00;54.40;;;;;;5045793;28;20070;-57
2022/06/02 09:15:56;;;;;;;10.52;6.35;;;31.80;53.00;;;;;;5042970;28;20106;-57
2022/06/02 09:18:49;;;;;;;13.40;5.93;;;31.50;55.30;;;;;;5047412;28;20029;-57
2022/06/02 09:21:33;;;;;;;10.15;5.75;;;31.80;53.50;;;;;;5049746;28;20454;-57
2022/06/02 09:24:04;;;;;;;10.15;5.85;;;31.90;51.80;;;;;;5055098;28;20025;-57
2022/06/02 09:26:59;;;;;;;14.02;6.32;;;32.10;53.70;;;;;;5056165;28;20031;-56
2022/06/02 09:29:53;;;;;;;11.30;5.25;;;32.10;55.40;;;;;;5053464;28;20087;-57
2022/06/02 09:32:50;;;;;;;12.10;5.82;;;31.50;51.20;;;;;;5055860;28;20035;-57
2022/06/02 09:35:21;;;;;;;13.30;6.68;;;30.90;53.10;;;;;;5055301;28;20021;-57
2022/06/02 09:38:00;;;;;;;17.73;6.95;;;30.90;55.70;;;;;;5055461;28;20048;-56
2022/06/02 09:40:50;;;;;;;38.20;10.50;;;31.10;54.70;;;;;;5054079;28;20106;-57
2022/06/02 09:43:50;;;;;;;17.58;7.07;;;31.20;55.00;;;;;;5036640;28;20112;-57
2022/06/02 09:46:48;;;;;;;15.02;6.30;;;30.80;56.40;;;;;;5036442;28;20463;-56
2022/06/02 09:49:23;;;;;;;11.45;6.25;;;31.50;54.10;;;;;;5036436;28;20040;-57
2022/06/02 09:51:55;;;;;;;12.10;5.82;;;31.80;53.80;;;;;;5036290;28;20089;-57
2022/06/02 09:54:56;;;;;;;12.23;5.13;;;32.00;53.00;;;;;;5036818;28;20084;-57
2022/06/02 09:57:57;;;;;;;11.18;4.47;;;31.70;49.80;;;;;;5033672;28;20038;-56
2022/06/02 10:00:45;;;;;;;6.55;3.67;;;31.40;47.90;;;;;;5037206;28;20348;-56
2022/06/02 10:03:32;;;;;;;18.33;4.20;;;31.90;51.60;;;;;;5036897;28;20033;-57
2022/06/02 10:06:27;;;;;;;18.25;5.47;;;32.20;49.30;;;;;;5055559;28;20045;-57
2022/06/02 10:09:18;;;;;;;10.40;5.10;;;32.10;48.50;;;;;;5056087;28;20017;-57
2022/06/02 10:11:56;;;;;;;9.25;4.50;;;31.50;49.00;;;;;;5054402;28;20052;-56
2022/06/02 10:14:52;;;;;;;10.43;4.00;;;31.90;48.00;;;;;;5057019;28;20502;-57
2022/06/02 10:17:41;;;;;;;8.18;3.20;;;32.00;47.00;;;;;;5056637;28;20029;-56
2022/06/02 10:20:32;;;;;;;9.10;3.20;;;32.20;44.20;;;;;;5056561;28;20047;-57
2022/06/02 10:23:31;;;;;;;7.03;3.17;;;32.60;42.40;;;;;;5056756;28;20032;-56
2022/06/02 10:26:19;;;;;;;6.53;3.00;;;32.50;41.90;;;;;;5055754;28;20602;-57
2022/06/02 10:29:24;;;;;;;7.93;2.67;;;32.80;43.90;;;;;;5053149;28;20466;-57
2022/06/02 10:32:20;;;;;;;6.28;2.20;;;33.30;38.30;;;;;;5038499;28;20045;-56
2022/06/02 10:35:10;;;;;;;8.35;2.17;;;32.80;37.70;;;;;;5056342;28;20501;-56
2022/06/02 10:38:03;;;;;;;7.80;2.63;;;32.90;36.90;;;;;;5056517;28;20108;-56
2022/06/02 10:40:55;;;;;;;4.60;2.22;;;33.30;38.70;;;;;;5055895;28;20029;-56
2022/06/02 10:43:29;;;;;;;9.15;3.15;;;33.50;40.60;;;;;;5056384;28;20029;-56
2022/06/02 10:46:21;;;;;;;6.45;2.97;;;33.70;43.20;;;;;;5044183;28;20471;-57
2022/06/02 10:48:50;;;;;;;6.30;2.47;;;33.80;38.00;;;;;;5052435;28;20052;-56
2022/06/02 10:51:55;;;;;;;5.85;2.47;;;33.40;39.80;;;;;;5047872;28;20036;-56
2022/06/02 10:54:55;;;;;;;6.45;2.90;;;33.40;41.20;;;;;;5051030;28;20030;-56
2022/06/02 10:57:59;;;;;;;6.28;2.50;;;33.60;39.80;;;;;;5049575;28;20078;-56
2022/06/02 11:00:49;;;;;;;12.23;3.92;;;33.80;40.80;;;;;;5052466;28;20077;-57
2022/06/02 11:03:43;;;;;;;10.88;3.17;;;34.30;38.90;;;;;;5051776;28;20028;-56
2022/06/02 11:06:40;;;;;;;8.18;2.85;;;34.20;38.50;;;;;;5051423;28;20029;-56
2022/06/02 11:09:25;;;;;;;9.55;3.70;;;33.50;40.30;;;;;;5051168;28;20021;-56
2022/06/02 11:12:18;;;;;;;7.28;3.65;;;33.40;41.80;;;;;;5050258;28;20032;-56
2022/06/02 11:15:28;;;;;;;10.85;3.97;;;33.40;42.40;;;;;;5054764;28;20075;-56
2022/06/02 11:18:06;;;;;;;8.35;3.05;;;33.60;41.30;;;;;;5054522;28;20078;-56
2022/06/02 11:21:16;;;;;;;11.95;3.42;;;33.40;41.30;;;;;;5052076;28;20037;-56
2022/06/02 11:24:00;;;;;;;9.60;3.70;;;32.10;41.40;;;;;;5005564;28;20128;-56
2022/06/02 11:26:50;;;;;;;13.43;3.17;;;32.60;42.10;;;;;;5052189;28;20043;-56
2022/06/02 11:29:44;;;;;;;9.88;3.10;;;33.00;43.30;;;;;;5049474;28;20024;-56
2022/06/02 11:32:40;;;;;;;7.65;3.28;;;33.00;39.20;;;;;;5044527;28;20040;-56
2022/06/02 11:35:05;;;;;;;9.85;2.72;;;32.90;38.80;;;;;;5039128;28;20099;-56
2022/06/02 11:37:43;;;;;;;10.75;3.22;;;32.70;38.20;;;;;;5049980;28;20039;-56
2022/06/02 11:40:30;;;;;;;8.48;3.50;;;32.90;39.00;;;;;;5049099;28;20036;-57
2022/06/02 11:43:16;;;;;;;9.45;3.40;;;33.10;40.60;;;;;;5038936;28;20033;-57
2022/06/02 11:46:20;;;;;;;10.02;3.47;;;33.40;41.20;;;;;;5052309;28;20052;-57
2022/06/02 11:49:04;;;;;;;11.27;4.35;;;33.60;40.20;;;;;;5040974;28;20025;-57
2022/06/02 11:52:01;;;;;;;17.58;4.35;;;33.80;43.10;;;;;;5042223;28;20026;-57
2022/06/02 11:55:05;;;;;;;10.27;3.63;;;34.10;40.60;;;;;;5044738;28;20028;-57
2022/06/02 11:57:56;;;;;;;9.75;4.10;;;34.20;40.90;;;;;;5048448;28;20023;-57
2022/06/02 12:01:12;;;;;;;9.88;3.38;;;34.40;41.60;;;;;;5041628;28;20451;-57
2022/06/02 12:03:57;;;;;;;8.07;3.72;;;34.40;41.10;;;;;;5044889;28;20033;-57
2022/06/02 12:06:36;;;;;;;8.02;3.17;;;34.50;41.90;;;;;;5048085;28;20080;-57
2022/06/02 12:09:36;;;;;;;7.35;4.00;;;34.20;40.20;;;;;;5051184;28;20072;-57
2022/06/02 12:12:11;;;;;;;7.07;4.20;;;34.20;42.70;;;;;;5056886;28;20086;-57
2022/06/02 12:15:11;;;;;;;8.27;4.40;;;34.10;43.00;;;;;;5057520;28;20032;-57
2022/06/02 12:17:57;;;;;;;10.57;4.40;;;33.80;41.50;;;;;;5057367;28;20033;-57
2022/06/02 12:20:43;;;;;;;10.77;4.10;;;33.40;43.10;;;;;;5062707;28;20538;-57
2022/06/02 12:23:38;;;;;;;13.20;3.90;;;33.80;43.20;;;;;;5053879;28;20516;-57
2022/06/02 12:26:45;;;;;;;7.70;3.88;;;34.20;44.50;;;;;;5053230;28;20037;-57
2022/06/02 12:30:01;;;;;;;9.65;4.05;;;34.40;43.00;;;;;;5052316;28;20032;-57
2022/06/02 12:33:33;;;;;;;10.45;3.83;;;34.30;40.60;;;;;;5053116;28;20040;-57
2022/06/02 12:36:23;;;;;;;12.40;4.03;;;33.80;43.10;;;;;;5013166;28;20045;-57
2022/06/02 12:39:23;;;;;;;13.00;4.30;;;34.10;42.80;;;;;;5057057;28;20029;-57
2022/06/02 12:42:08;;;;;;;10.45;4.30;;;34.60;41.60;;;;;;5057407;28;20025;-57
2022/06/02 12:45:01;;;;;;;16.63;8.95;;;34.60;39.40;;;;;;5053968;28;20013;-57
2022/06/02 12:47:52;;;;;;;12.63;4.55;;;34.60;40.90;;;;;;5047226;28;20021;-57
2022/06/02 12:51:13;;;;;;;20.23;7.20;;;34.30;42.70;;;;;;5053504;28;20747;-57
2022/06/02 12:54:25;;;;;;;13.63;5.13;;;33.80;43.60;;;;;;5050978;28;20024;-57
2022/06/02 12:57:26;;;;;;;13.90;4.32;;;33.20;42.60;;;;;;5057486;28;20121;-57
2022/06/02 13:00:27;;;;;;;9.05;3.97;;;32.90;45.70;;;;;;5049694;28;20438;-57
2022/06/02 13:03:16;;;;;;;10.07;4.80;;;33.60;42.50;;;;;;5041844;28;20160;-57
2022/06/02 13:06:27;;;;;;;9.43;3.47;;;34.30;44.00;;;;;;5051754;28;20120;-57
2022/06/02 13:09:21;;;;;;;5.25;3.35;;;34.70;43.80;;;;;;5052084;28;20080;-57
2022/06/02 13:12:21;;;;;;;18.20;7.78;;;34.20;40.30;;;;;;5045614;28;20087;-57
2022/06/02 13:15:24;;;;;;;12.05;5.32;;;33.90;44.00;;;;;;5046333;28;20033;-56
2022/06/02 13:18:06;;;;;;;13.07;6.40;;;33.90;43.50;;;;;;5047741;28;20375;-56
2022/06/02 13:21:00;;;;;;;21.77;5.78;;;33.00;43.50;;;;;;5045762;28;20073;-56
2022/06/02 13:23:57;;;;;;;11.90;4.38;;;32.90;45.40;;;;;;5056672;28;20502;-56
2022/06/02 13:26:50;;;;;;;8.27;4.50;;;32.40;45.90;;;;;;5056734;28;20529;-56
2022/06/02 13:29:39;;;;;;;6.65;4.03;;;32.00;47.60;;;;;;5056495;28;20421;-56
2022/06/02 13:32:29;;;;;;;22.73;5.78;;;31.70;49.00;;;;;;5056434;28;20270;-56
2022/06/02 13:35:14;;;;;;;19.27;5.25;;;31.20;50.00;;;;;;5056056;28;20039;-56
2022/06/02 13:37:55;;;;;;;17.08;6.78;;;31.10;52.10;;;;;;5056218;28;20040;-56
2022/06/02 13:40:32;;;;;;;15.70;7.40;;;30.90;53.20;;;;;;5056425;28;20064;-56
2022/06/02 13:43:07;;;;;;;15.48;7.93;;;30.50;56.90;;;;;;5056009;28;20029;-56
2022/06/02 13:45:58;;;;;;;14.23;7.43;;;30.60;60.40;;;;;;5056143;28;20079;-56
2022/06/02 13:48:58;;;;;;;16.77;7.88;;;30.80;60.70;;;;;;5056479;28;20029;-56
2022/06/02 13:51:49;;;;;;;19.10;8.05;;;30.70;59.30;;;;;;5056257;28;20060;-56
2022/06/02 13:57:56;;;;;;;16.58;7.72;;;30.80;57.70;;;;;;5056001;28;20474;-56
2022/06/02 14:00:25;;;;;;;15.07;7.30;;;30.40;60.80;;;;;;5040594;28;20041;-56
2022/06/02 14:03:15;;;;;;;16.13;7.90;;;30.70;58.90;;;;;;5056153;28;20029;-56
2022/06/02 14:06:13;;;;;;;11.30;6.47;;;31.10;59.80;;;;;;5055985;28;20025;-56
2022/06/02 14:09:14;;;;;;;14.43;6.28;;;31.10;56.80;;;;;;5055703;28;20394;-56
2022/06/02 14:11:49;;;;;;;9.95;6.15;;;31.30;57.40;;;;;;5056155;28;20025;-56
2022/06/02 14:14:26;;;;;;;9.40;6.47;;;30.50;58.30;;;;;;5055505;28;20033;-56
2022/06/02 14:17:25;;;;;;;15.25;7.28;;;31.10;61.50;;;;;;5055762;28;20108;-56
2022/06/02 14:20:17;;;;;;;14.15;7.32;;;31.10;60.30;;;;;;5016117;28;20425;-56
2022/06/02 14:23:14;;;;;;;19.95;8.38;;;31.00;59.70;;;;;;5055386;28;20246;-57
2022/06/02 14:26:16;;;;;;;11.35;6.93;;;31.00;59.80;;;;;;5055494;28;20029;-56
2022/06/02 14:28:48;;;;;;;12.27;6.57;;;30.40;57.70;;;;;;5042282;28;20071;-56
2022/06/02 14:31:24;;;;;;;11.52;5.88;;;30.40;59.70;;;;;;5055079;28;20031;-56
2022/06/02 14:34:16;;;;;;;8.70;6.35;;;30.40;65.00;;;;;;5054447;28;20029;-56